sensor_id;sensor_type;location;lat;lon;timestamp;pressure;altitude;pressure_sealevel;temperature;humidity
67397;BME280;57728;50.448;18.824;2023-01-30T00:00:52;97867.03;;;-1.18;67.16
67397;BME280;57728;50.448;18.824;2023-01-30T00:02:55;97834.78;;;-1.33;67.10
67397;BME280;57728;50.448;18.824;2023-01-30T00:04:57;97679.66;;;-2.25;66.94
67397;BME280;57728;50.448;18.824;2023-01-30T00:06:59;97768.72;;;-1.65;66.78
67397;BME280;57728;50.448;18.824;2023-01-30T00:09:00;97735.59;;;-1.81;66.91
67397;BME280;57728;50.448;18.824;2023-01-30T00:11:07;97853.94;;;-1.03;66.79
67397;BME280;57728;50.448;18.824;2023-01-30T00:13:13;97808.06;;;-1.33;66.88
67397;BME280;57728;50.448;18.824;2023-01-30T00:15:15;97853.75;;;-1.01;66.67
67397;BME280;57728;50.448;18.824;2023-01-30T00:17:16;97840.56;;;-1.03;66.66
67397;BME280;57728;50.448;18.824;2023-01-30T00:19:19;97838.72;;;-1.02;66.40
67397;BME280;57728;50.448;18.824;2023-01-30T00:21:20;97835.38;;;-1.05;66.27
67397;BME280;57728;50.448;18.824;2023-01-30T00:23:21;97703.88;;;-1.84;66.47
67397;BME280;57728;50.448;18.824;2023-01-30T00:25:25;97867.94;;;-1.01;66.26
67397;BME280;57728;50.448;18.824;2023-01-30T00:27:29;97827.00;;;-1.10;66.08
67397;BME280;57728;50.448;18.824;2023-01-30T00:29:30;97831.03;;;-1.06;66.04
67397;BME280;57728;50.448;18.824;2023-01-30T00:31:32;97755.06;;;-1.54;66.05
67397;BME280;57728;50.448;18.824;2023-01-30T00:33:36;97797.72;;;-1.28;65.78
67397;BME280;57728;50.448;18.824;2023-01-30T00:35:43;97574.00;;;-2.61;65.92
67397;BME280;57728;50.448;18.824;2023-01-30T00:37:49;97748.34;;;-1.66;65.38
67397;BME280;57728;50.448;18.824;2023-01-30T00:39:51;97821.63;;;-1.18;65.81
67397;BME280;57728;50.448;18.824;2023-01-30T00:41:52;97787.81;;;-1.44;65.73
67397;BME280;57728;50.448;18.824;2023-01-30T00:44:13;97735.47;;;-1.71;65.91
67397;BME280;57728;50.448;18.824;2023-01-30T00:46:43;97756.75;;;-1.45;65.91
67397;BME280;57728;50.448;18.824;2023-01-30T00:49:03;97778.84;;;-1.26;66.12
67397;BME280;57728;50.448;18.824;2023-01-30T00:51:06;97811.00;;;-1.01;65.97
67397;BME280;57728;50.448;18.824;2023-01-30T00:53:12;97780.25;;;-1.14;65.96
67397;BME280;57728;50.448;18.824;2023-01-30T00:55:16;97754.47;;;-1.23;66.03
67397;BME280;57728;50.448;18.824;2023-01-30T00:57:18;97709.84;;;-1.47;65.75
67397;BME280;57728;50.448;18.824;2023-01-30T00:59:20;97759.00;;;-1.24;65.63
67397;BME280;57728;50.448;18.824;2023-01-30T01:01:22;97787.78;;;-1.01;65.39
67397;BME280;57728;50.448;18.824;2023-01-30T01:03:24;97792.94;;;-1.08;65.17
67397;BME280;57728;50.448;18.824;2023-01-30T01:05:27;97662.16;;;-1.93;65.26
67397;BME280;57728;50.448;18.824;2023-01-30T01:07:29;97783.25;;;-1.17;65.14
67397;BME280;57728;50.448;18.824;2023-01-30T01:09:31;97752.13;;;-1.34;65.17
67397;BME280;57728;50.448;18.824;2023-01-30T01:11:34;97730.56;;;-1.49;65.45
67397;BME280;57728;50.448;18.824;2023-01-30T01:13:36;97682.56;;;-1.76;65.22
67397;BME280;57728;50.448;18.824;2023-01-30T01:15:38;97773.53;;;-1.18;65.52
67397;BME280;57728;50.448;18.824;2023-01-30T01:17:41;97744.78;;;-1.32;65.42
67397;BME280;57728;50.448;18.824;2023-01-30T01:19:42;97731.22;;;-1.47;65.13
67397;BME280;57728;50.448;18.824;2023-01-30T01:21:45;97764.84;;;-1.28;65.26
67397;BME280;57728;50.448;18.824;2023-01-30T01:23:51;97753.78;;;-1.33;65.29
67397;BME280;57728;50.448;18.824;2023-01-30T01:25:55;97750.44;;;-1.44;65.15
67397;BME280;57728;50.448;18.824;2023-01-30T01:27:57;97742.56;;;-1.53;65.55
67397;BME280;57728;50.448;18.824;2023-01-30T01:29:58;97722.56;;;-1.84;65.61
67397;BME280;57728;50.448;18.824;2023-01-30T01:32:00;97715.41;;;-1.83;65.76
67397;BME280;57728;50.448;18.824;2023-01-30T01:34:02;97653.66;;;-2.31;66.02
67397;BME280;57728;50.448;18.824;2023-01-30T01:36:05;97724.56;;;-1.86;66.18
67397;BME280;57728;50.448;18.824;2023-01-30T01:38:07;97662.16;;;-2.28;66.50
67397;BME280;57728;50.448;18.824;2023-01-30T01:40:17;97706.81;;;-1.95;66.53
67397;BME280;57728;50.448;18.824;2023-01-30T01:42:41;97616.31;;;-2.57;66.89
67397;BME280;57728;50.448;18.824;2023-01-30T01:47:20;97656.97;;;-2.29;67.05
67397;BME280;57728;50.448;18.824;2023-01-30T01:49:25;97680.91;;;-2.11;67.37
67397;BME280;57728;50.448;18.824;2023-01-30T01:51:31;97677.75;;;-2.15;67.39
67397;BME280;57728;50.448;18.824;2023-01-30T01:53:57;97681.34;;;-2.24;67.49
67397;BME280;57728;50.448;18.824;2023-01-30T01:56:07;97618.66;;;-2.63;67.67
67397;BME280;57728;50.448;18.824;2023-01-30T02:00:16;97571.00;;;-2.92;67.89
67397;BME280;57728;50.448;18.824;2023-01-30T02:02:21;97654.56;;;-2.40;68.17
67397;BME280;57728;50.448;18.824;2023-01-30T02:04:27;97542.28;;;-3.06;68.44
67397;BME280;57728;50.448;18.824;2023-01-30T02:06:51;97607.44;;;-2.66;68.52
67397;BME280;57728;50.448;18.824;2023-01-30T02:08:57;97446.22;;;-3.84;68.73
67397;BME280;57728;50.448;18.824;2023-01-30T02:11:25;97590.56;;;-3.01;69.09
67397;BME280;57728;50.448;18.824;2023-01-30T02:13:36;97652.75;;;-2.66;69.57
67397;BME280;57728;50.448;18.824;2023-01-30T02:15:39;97321.13;;;-4.62;69.39
67397;BME280;57728;50.448;18.824;2023-01-30T02:17:41;97411.84;;;-4.03;69.55
67397;BME280;57728;50.448;18.824;2023-01-30T02:35:12;97472.16;;;-3.41;70.04
67397;BME280;57728;50.448;18.824;2023-01-30T02:43:31;97573.88;;;-2.51;70.19
67397;BME280;57728;50.448;18.824;2023-01-30T02:51:00;97492.03;;;-3.01;70.14
67397;BME280;57728;50.448;18.824;2023-01-30T02:53:07;97581.66;;;-2.31;70.13
67397;BME280;57728;50.448;18.824;2023-01-30T02:55:23;97504.13;;;-2.81;70.19
67397;BME280;57728;50.448;18.824;2023-01-30T02:57:27;97563.03;;;-2.23;70.24
67397;BME280;57728;50.448;18.824;2023-01-30T02:59:45;97564.22;;;-2.17;70.21
67397;BME280;57728;50.448;18.824;2023-01-30T03:11:46;97539.72;;;-2.13;69.53
67397;BME280;57728;50.448;18.824;2023-01-30T03:14:08;97552.88;;;-2.11;69.47
67397;BME280;57728;50.448;18.824;2023-01-30T03:16:40;97549.88;;;-2.08;69.29
67397;BME280;57728;50.448;18.824;2023-01-30T03:18:43;97503.16;;;-2.29;69.18
67397;BME280;57728;50.448;18.824;2023-01-30T03:20:52;97510.66;;;-2.24;69.33
67397;BME280;57728;50.448;18.824;2023-01-30T03:22:54;97463.94;;;-2.53;69.19
67397;BME280;57728;50.448;18.824;2023-01-30T03:24:56;97474.13;;;-2.40;69.13
67397;BME280;57728;50.448;18.824;2023-01-30T03:27:06;97441.59;;;-2.52;68.97
67397;BME280;57728;50.448;18.824;2023-01-30T03:29:11;97498.72;;;-2.12;68.97
67397;BME280;57728;50.448;18.824;2023-01-30T03:31:12;97495.38;;;-2.05;68.92
67397;BME280;57728;50.448;18.824;2023-01-30T03:33:14;97441.97;;;-2.38;68.79
67397;BME280;57728;50.448;18.824;2023-01-30T03:35:22;97501.56;;;-1.97;68.62
67397;BME280;57728;50.448;18.824;2023-01-30T03:37:24;97475.19;;;-2.08;68.58
67397;BME280;57728;50.448;18.824;2023-01-30T03:39:26;97507.22;;;-2.00;68.37
67397;BME280;57728;50.448;18.824;2023-01-30T03:41:28;97480.69;;;-2.10;68.57
67397;BME280;57728;50.448;18.824;2023-01-30T03:43:30;97490.06;;;-1.97;68.56
67397;BME280;57728;50.448;18.824;2023-01-30T03:45:32;97170.75;;;-3.94;68.28
67397;BME280;57728;50.448;18.824;2023-01-30T03:47:34;97362.59;;;-2.78;68.18
67397;BME280;57728;50.448;18.824;2023-01-30T03:49:35;97269.28;;;-3.19;68.13
67397;BME280;57728;50.448;18.824;2023-01-30T03:51:38;97305.78;;;-2.95;67.89
67397;BME280;57728;50.448;18.824;2023-01-30T03:53:39;97431.50;;;-2.15;68.08
67397;BME280;57728;50.448;18.824;2023-01-30T03:55:43;97279.31;;;-2.96;67.89
67397;BME280;57728;50.448;18.824;2023-01-30T03:57:45;97436.03;;;-2.16;67.91
67397;BME280;57728;50.448;18.824;2023-01-30T03:59:47;97251.97;;;-3.15;67.74
67397;BME280;57728;50.448;18.824;2023-01-30T04:01:50;97402.50;;;-2.18;67.97
67397;BME280;57728;50.448;18.824;2023-01-30T04:03:52;97315.47;;;-2.69;67.93
67397;BME280;57728;50.448;18.824;2023-01-30T04:05:54;97304.47;;;-2.90;67.80
67397;BME280;57728;50.448;18.824;2023-01-30T04:07:56;97444.38;;;-1.86;67.90
67397;BME280;57728;50.448;18.824;2023-01-30T04:09:59;97216.53;;;-3.23;67.77
67397;BME280;57728;50.448;18.824;2023-01-30T04:12:01;97438.38;;;-1.88;67.98
67397;BME280;57728;50.448;18.824;2023-01-30T04:14:06;97374.34;;;-2.21;67.80
67397;BME280;57728;50.448;18.824;2023-01-30T04:16:20;97372.81;;;-2.23;67.70
67397;BME280;57728;50.448;18.824;2023-01-30T04:18:58;97375.34;;;-2.05;67.66
67397;BME280;57728;50.448;18.824;2023-01-30T04:21:04;97334.50;;;-2.31;67.68
67397;BME280;57728;50.448;18.824;2023-01-30T04:23:11;97358.69;;;-2.16;67.66
67397;BME280;57728;50.448;18.824;2023-01-30T04:25:14;97420.03;;;-1.75;67.61
67397;BME280;57728;50.448;18.824;2023-01-30T04:27:15;97347.50;;;-2.19;67.49
67397;BME280;57728;50.448;18.824;2023-01-30T04:29:35;97351.19;;;-2.20;67.44
67397;BME280;57728;50.448;18.824;2023-01-30T04:31:40;97409.00;;;-1.71;67.47
67397;BME280;57728;50.448;18.824;2023-01-30T04:33:53;97397.50;;;-1.72;67.50
67397;BME280;57728;50.448;18.824;2023-01-30T04:35:58;97377.03;;;-1.88;67.43
67397;BME280;57728;50.448;18.824;2023-01-30T04:38:00;97412.53;;;-1.71;67.48
67397;BME280;57728;50.448;18.824;2023-01-30T04:40:02;97383.19;;;-1.79;67.40
67397;BME280;57728;50.448;18.824;2023-01-30T04:42:05;97376.00;;;-1.79;67.20
67397;BME280;57728;50.448;18.824;2023-01-30T04:44:14;97396.47;;;-1.63;67.22
67397;BME280;57728;50.448;18.824;2023-01-30T04:46:23;97384.16;;;-1.64;67.25
67397;BME280;57728;50.448;18.824;2023-01-30T04:48:26;97318.16;;;-2.11;66.93
67397;BME280;57728;50.448;18.824;2023-01-30T04:50:30;97359.28;;;-1.73;66.93
67397;BME280;57728;50.448;18.824;2023-01-30T04:52:31;97304.19;;;-2.05;66.89
67397;BME280;57728;50.448;18.824;2023-01-30T04:54:34;97369.31;;;-1.66;66.71
67397;BME280;57728;50.448;18.824;2023-01-30T04:56:35;97384.47;;;-1.67;66.78
67397;BME280;57728;50.448;18.824;2023-01-30T04:58:37;97306.84;;;-2.05;66.84
67397;BME280;57728;50.448;18.824;2023-01-30T05:00:40;97323.31;;;-2.01;66.75
67397;BME280;57728;50.448;18.824;2023-01-30T05:02:41;97364.63;;;-1.73;66.70
67397;BME280;57728;50.448;18.824;2023-01-30T05:04:52;97384.28;;;-1.57;66.69
67397;BME280;57728;50.448;18.824;2023-01-30T05:06:55;97286.16;;;-2.11;66.65
67397;BME280;57728;50.448;18.824;2023-01-30T05:08:57;97257.34;;;-2.24;66.64
67397;BME280;57728;50.448;18.824;2023-01-30T05:10:59;97348.94;;;-1.59;66.46
67397;BME280;57728;50.448;18.824;2023-01-30T05:13:04;97254.16;;;-2.28;66.33
67397;BME280;57728;50.448;18.824;2023-01-30T05:15:07;97279.66;;;-2.09;66.41
67397;BME280;57728;50.448;18.824;2023-01-30T05:17:09;97288.47;;;-2.08;66.39
67397;BME280;57728;50.448;18.824;2023-01-30T05:19:11;97311.59;;;-1.76;66.51
67397;BME280;57728;50.448;18.824;2023-01-30T05:21:17;97356.25;;;-1.53;66.23
67397;BME280;57728;50.448;18.824;2023-01-30T05:23:20;97321.63;;;-1.78;66.38
67397;BME280;57728;50.448;18.824;2023-01-30T05:25:22;97384.97;;;-1.47;66.25
67397;BME280;57728;50.448;18.824;2023-01-30T05:27:24;97363.63;;;-1.55;66.08
67397;BME280;57728;50.448;18.824;2023-01-30T05:29:25;97293.63;;;-1.90;66.12
67397;BME280;57728;50.448;18.824;2023-01-30T05:31:27;97288.63;;;-1.85;66.14
67397;BME280;57728;50.448;18.824;2023-01-30T05:33:29;97307.94;;;-1.66;65.95
67397;BME280;57728;50.448;18.824;2023-01-30T05:35:30;97286.75;;;-1.68;65.88
67397;BME280;57728;50.448;18.824;2023-01-30T05:37:32;97327.53;;;-1.43;66.00
67397;BME280;57728;50.448;18.824;2023-01-30T05:39:34;97276.88;;;-1.67;65.93
67397;BME280;57728;50.448;18.824;2023-01-30T05:41:35;97226.28;;;-1.92;65.84
67397;BME280;57728;50.448;18.824;2023-01-30T05:43:39;97308.16;;;-1.36;65.76
67397;BME280;57728;50.448;18.824;2023-01-30T05:45:40;97305.84;;;-1.40;65.63
67397;BME280;57728;50.448;18.824;2023-01-30T05:47:42;97320.19;;;-1.41;65.47
67397;BME280;57728;50.448;18.824;2023-01-30T05:49:44;97289.19;;;-1.50;65.63
67397;BME280;57728;50.448;18.824;2023-01-30T05:51:46;97288.66;;;-1.37;65.52
67397;BME280;57728;50.448;18.824;2023-01-30T05:53:48;97299.31;;;-1.37;65.33
67397;BME280;57728;50.448;18.824;2023-01-30T05:56:00;97283.84;;;-1.50;65.32
67397;BME280;57728;50.448;18.824;2023-01-30T05:58:03;97294.28;;;-1.32;65.27
67397;BME280;57728;50.448;18.824;2023-01-30T06:00:05;97224.94;;;-1.48;65.40
67397;BME280;57728;50.448;18.824;2023-01-30T06:02:14;97239.91;;;-1.39;65.27
67397;BME280;57728;50.448;18.824;2023-01-30T06:04:16;97244.59;;;-1.41;65.35
67397;BME280;57728;50.448;18.824;2023-01-30T06:06:18;97204.19;;;-1.69;64.96
67397;BME280;57728;50.448;18.824;2023-01-30T06:08:21;97177.88;;;-1.81;64.95
67397;BME280;57728;50.448;18.824;2023-01-30T06:10:22;97171.34;;;-1.78;64.98
67397;BME280;57728;50.448;18.824;2023-01-30T06:12:24;97212.78;;;-1.51;64.79
67397;BME280;57728;50.448;18.824;2023-01-30T06:14:26;97231.94;;;-1.47;64.94
67397;BME280;57728;50.448;18.824;2023-01-30T06:16:27;97253.56;;;-1.34;64.90
67397;BME280;57728;50.448;18.824;2023-01-30T06:18:29;97202.84;;;-1.65;64.88
67397;BME280;57728;50.448;18.824;2023-01-30T06:20:31;97268.84;;;-1.19;64.97
67397;BME280;57728;50.448;18.824;2023-01-30T06:22:33;97172.38;;;-1.79;64.78
67397;BME280;57728;50.448;18.824;2023-01-30T06:24:34;97169.16;;;-1.75;64.67
67397;BME280;57728;50.448;18.824;2023-01-30T06:26:36;97018.63;;;-2.83;64.63
67397;BME280;57728;50.448;18.824;2023-01-30T06:28:38;97204.22;;;-1.46;64.80
67397;BME280;57728;50.448;18.824;2023-01-30T06:30:40;97201.94;;;-1.58;64.86
67397;BME280;57728;50.448;18.824;2023-01-30T06:32:42;97247.34;;;-1.26;65.08
67397;BME280;57728;50.448;18.824;2023-01-30T06:34:44;97144.91;;;-1.88;65.04
67397;BME280;57728;50.448;18.824;2023-01-30T06:36:45;97130.06;;;-1.91;65.00
67397;BME280;57728;50.448;18.824;2023-01-30T06:38:47;97183.75;;;-1.54;64.92
67397;BME280;57728;50.448;18.824;2023-01-30T06:40:49;97229.31;;;-1.24;65.04
67397;BME280;57728;50.448;18.824;2023-01-30T06:42:51;97141.53;;;-1.82;65.10
67397;BME280;57728;50.448;18.824;2023-01-30T06:44:53;97147.31;;;-1.78;65.06
67397;BME280;57728;50.448;18.824;2023-01-30T06:46:54;97136.34;;;-1.75;65.02
67397;BME280;57728;50.448;18.824;2023-01-30T06:48:55;97203.38;;;-1.39;64.84
67397;BME280;57728;50.448;18.824;2023-01-30T06:50:58;97184.03;;;-1.49;64.88
67397;BME280;57728;50.448;18.824;2023-01-30T06:53:05;97231.59;;;-1.13;64.96
67397;BME280;57728;50.448;18.824;2023-01-30T06:55:09;97228.75;;;-1.11;64.88
67397;BME280;57728;50.448;18.824;2023-01-30T06:57:13;97190.81;;;-1.30;65.02
67397;BME280;57728;50.448;18.824;2023-01-30T06:59:14;97150.75;;;-1.61;65.03
67397;BME280;57728;50.448;18.824;2023-01-30T07:01:16;97211.72;;;-1.10;64.74
67397;BME280;57728;50.448;18.824;2023-01-30T07:03:20;97187.28;;;-1.30;64.86
67397;BME280;57728;50.448;18.824;2023-01-30T07:05:21;97204.97;;;-1.06;65.00
67397;BME280;57728;50.448;18.824;2023-01-30T07:07:23;97108.94;;;-1.46;64.80
67397;BME280;57728;50.448;18.824;2023-01-30T07:09:25;97062.34;;;-1.90;64.81
67397;BME280;57728;50.448;18.824;2023-01-30T07:11:26;97110.47;;;-1.51;65.00
67397;BME280;57728;50.448;18.824;2023-01-30T07:13:28;97108.78;;;-1.44;65.00
67397;BME280;57728;50.448;18.824;2023-01-30T07:15:30;97160.28;;;-1.12;64.83
67397;BME280;57728;50.448;18.824;2023-01-30T07:17:32;97195.59;;;-1.02;64.98
67397;BME280;57728;50.448;18.824;2023-01-30T07:19:35;97173.72;;;-0.97;65.02
67397;BME280;57728;50.448;18.824;2023-01-30T07:21:39;97178.34;;;-0.91;64.99
67397;BME280;57728;50.448;18.824;2023-01-30T07:23:41;97177.78;;;-0.87;64.74
67397;BME280;57728;50.448;18.824;2023-01-30T07:25:43;97125.09;;;-1.16;64.62
67397;BME280;57728;50.448;18.824;2023-01-30T07:27:51;97153.03;;;-1.04;64.78
67397;BME280;57728;50.448;18.824;2023-01-30T07:29:54;96948.03;;;-2.24;64.43
67397;BME280;57728;50.448;18.824;2023-01-30T07:31:56;97168.28;;;-0.89;64.66
67397;BME280;57728;50.448;18.824;2023-01-30T07:33:58;97161.75;;;-0.87;64.74
67397;BME280;57728;50.448;18.824;2023-01-30T07:35:59;97114.69;;;-1.11;64.61
67397;BME280;57728;50.448;18.824;2023-01-30T07:38:01;97155.22;;;-0.84;64.67
67397;BME280;57728;50.448;18.824;2023-01-30T07:40:04;97010.19;;;-1.69;64.57
67397;BME280;57728;50.448;18.824;2023-01-30T07:42:08;96907.09;;;-2.31;64.44
67397;BME280;57728;50.448;18.824;2023-01-30T07:44:11;97081.13;;;-1.28;64.40
67397;BME280;57728;50.448;18.824;2023-01-30T07:46:14;96959.97;;;-2.12;64.38
67397;BME280;57728;50.448;18.824;2023-01-30T07:48:19;96973.66;;;-1.92;64.31
67397;BME280;57728;50.448;18.824;2023-01-30T07:50:21;97082.38;;;-1.16;64.31
67397;BME280;57728;50.448;18.824;2023-01-30T07:52:24;97097.19;;;-1.13;64.02
67397;BME280;57728;50.448;18.824;2023-01-30T07:54:26;97114.63;;;-1.02;64.00
67397;BME280;57728;50.448;18.824;2023-01-30T07:56:28;96924.75;;;-2.30;63.87
67397;BME280;57728;50.448;18.824;2023-01-30T07:58:30;97154.50;;;-0.78;64.03
67397;BME280;57728;50.448;18.824;2023-01-30T08:00:32;97059.34;;;-1.17;64.01
67397;BME280;57728;50.448;18.824;2023-01-30T08:02:34;97110.84;;;-0.70;64.06
67397;BME280;57728;50.448;18.824;2023-01-30T08:04:36;97148.13;;;-0.54;64.00
67397;BME280;57728;50.448;18.824;2023-01-30T08:06:38;96995.25;;;-1.40;63.92
67397;BME280;57728;50.448;18.824;2023-01-30T08:08:40;97077.94;;;-0.71;63.91
67397;BME280;57728;50.448;18.824;2023-01-30T08:10:48;97038.84;;;-0.87;63.49
67397;BME280;57728;50.448;18.824;2023-01-30T08:12:50;96993.69;;;-1.11;63.57
67397;BME280;57728;50.448;18.824;2023-01-30T08:14:51;96917.16;;;-1.57;63.10
67397;BME280;57728;50.448;18.824;2023-01-30T08:16:55;97050.25;;;-0.78;63.48
67397;BME280;57728;50.448;18.824;2023-01-30T08:18:57;96887.75;;;-1.87;63.23
67397;BME280;57728;50.448;18.824;2023-01-30T08:21:04;97103.56;;;-0.61;63.29
67397;BME280;57728;50.448;18.824;2023-01-30T08:23:07;97068.81;;;-0.76;63.41
67397;BME280;57728;50.448;18.824;2023-01-30T08:25:10;96968.66;;;-1.71;63.44
67397;BME280;57728;50.448;18.824;2023-01-30T08:27:11;97016.09;;;-1.35;63.44
67397;BME280;57728;50.448;18.824;2023-01-30T08:29:14;97147.34;;;-0.62;63.63
67397;BME280;57728;50.448;18.824;2023-01-30T08:31:16;96979.91;;;-1.61;63.81
67397;BME280;57728;50.448;18.824;2023-01-30T08:33:18;97132.34;;;-0.63;64.00
67397;BME280;57728;50.448;18.824;2023-01-30T08:35:21;96905.69;;;-2.19;63.73
67397;BME280;57728;50.448;18.824;2023-01-30T08:37:23;97098.72;;;-0.96;63.81
67397;BME280;57728;50.448;18.824;2023-01-30T08:39:24;97115.31;;;-0.85;64.06
67397;BME280;57728;50.448;18.824;2023-01-30T08:41:26;97006.56;;;-1.53;64.15
67397;BME280;57728;50.448;18.824;2023-01-30T08:43:28;97082.00;;;-1.13;64.10
67397;BME280;57728;50.448;18.824;2023-01-30T08:45:30;97070.59;;;-1.07;64.10
67397;BME280;57728;50.448;18.824;2023-01-30T08:47:32;97121.16;;;-0.82;64.32
67397;BME280;57728;50.448;18.824;2023-01-30T08:49:35;96981.50;;;-1.90;64.35
67397;BME280;57728;50.448;18.824;2023-01-30T08:51:36;96865.63;;;-2.57;64.39
67397;BME280;57728;50.448;18.824;2023-01-30T08:53:39;97111.84;;;-0.86;64.59
67397;BME280;57728;50.448;18.824;2023-01-30T08:55:43;97039.72;;;-1.24;64.70
67397;BME280;57728;50.448;18.824;2023-01-30T08:57:50;97102.59;;;-0.83;64.73
67397;BME280;57728;50.448;18.824;2023-01-30T08:59:52;97094.44;;;-0.82;65.13
67397;BME280;57728;50.448;18.824;2023-01-30T09:01:54;97115.63;;;-0.80;65.62
67397;BME280;57728;50.448;18.824;2023-01-30T09:03:56;97086.41;;;-0.82;65.72
67397;BME280;57728;50.448;18.824;2023-01-30T09:05:58;97000.50;;;-1.47;66.09
67397;BME280;57728;50.448;18.824;2023-01-30T09:07:59;97013.88;;;-1.32;66.44
67397;BME280;57728;50.448;18.824;2023-01-30T09:10:02;97087.59;;;-0.84;67.28
67397;BME280;57728;50.448;18.824;2023-01-30T09:12:05;97090.34;;;-0.93;67.42
67397;BME280;57728;50.448;18.824;2023-01-30T09:14:06;97094.44;;;-0.82;67.76
67397;BME280;57728;50.448;18.824;2023-01-30T09:16:10;97056.69;;;-1.02;67.77
67397;BME280;57728;50.448;18.824;2023-01-30T09:18:14;97047.22;;;-1.05;68.21
67397;BME280;57728;50.448;18.824;2023-01-30T09:20:16;97035.94;;;-1.15;68.70
67397;BME280;57728;50.448;18.824;2023-01-30T09:22:19;97091.75;;;-0.82;68.94
67397;BME280;57728;50.448;18.824;2023-01-30T09:24:22;96993.44;;;-1.40;69.42
67397;BME280;57728;50.448;18.824;2023-01-30T09:26:26;96861.72;;;-2.23;69.50
67397;BME280;57728;50.448;18.824;2023-01-30T09:28:27;97094.50;;;-0.75;69.70
67397;BME280;57728;50.448;18.824;2023-01-30T09:30:31;97003.69;;;-1.28;69.84
67397;BME280;57728;50.448;18.824;2023-01-30T09:32:33;96962.34;;;-1.56;70.18
67397;BME280;57728;50.448;18.824;2023-01-30T09:34:37;97029.28;;;-1.19;70.32
67397;BME280;57728;50.448;18.824;2023-01-30T09:36:39;96760.16;;;-2.74;70.63
67397;BME280;57728;50.448;18.824;2023-01-30T09:38:41;97060.03;;;-0.85;71.06
67397;BME280;57728;50.448;18.824;2023-01-30T09:48:32;96958.44;;;-1.45;71.75
67397;BME280;57728;50.448;18.824;2023-01-30T09:55:24;96881.53;;;-2.02;72.74
67397;BME280;57728;50.448;18.824;2023-01-30T09:57:29;97028.78;;;-0.99;72.76
67397;BME280;57728;50.448;18.824;2023-01-30T09:59:47;97024.53;;;-1.09;73.15
67397;BME280;57728;50.448;18.824;2023-01-30T10:02:18;97019.00;;;-0.92;73.19
67397;BME280;57728;50.448;18.824;2023-01-30T10:04:44;96940.69;;;-1.38;73.13
67397;BME280;57728;50.448;18.824;2023-01-30T10:20:42;96958.88;;;-1.03;74.04
67397;BME280;57728;50.448;18.824;2023-01-30T10:25:38;96977.09;;;-0.77;73.96
67397;BME280;57728;50.448;18.824;2023-01-30T10:30:16;96975.34;;;-0.70;73.67
67397;BME280;57728;50.448;18.824;2023-01-30T10:32:45;96962.91;;;-0.77;73.66
67397;BME280;57728;50.448;18.824;2023-01-30T10:37:39;96918.34;;;-0.92;74.04
67397;BME280;57728;50.448;18.824;2023-01-30T10:40:02;96930.47;;;-0.74;74.08
67397;BME280;57728;50.448;18.824;2023-01-30T10:42:26;96906.97;;;-0.94;73.99
67397;BME280;57728;50.448;18.824;2023-01-30T10:44:33;96939.41;;;-0.67;73.93
67397;BME280;57728;50.448;18.824;2023-01-30T10:49:15;96872.28;;;-1.09;74.29
67397;BME280;57728;50.448;18.824;2023-01-30T10:54:25;96956.09;;;-0.28;74.03
67397;BME280;57728;50.448;18.824;2023-01-30T10:59:21;96924.28;;;-0.23;73.57
67397;BME280;57728;50.448;18.824;2023-01-30T11:06:37;96922.78;;;-0.26;73.49
67397;BME280;57728;50.448;18.824;2023-01-30T11:08:39;96903.38;;;-0.35;73.67
67397;BME280;57728;50.448;18.824;2023-01-30T11:10:41;96907.84;;;-0.20;73.71
67397;BME280;57728;50.448;18.824;2023-01-30T11:12:42;96912.63;;;-0.15;73.78
67397;BME280;57728;50.448;18.824;2023-01-30T11:14:56;96816.56;;;-0.75;73.60
67397;BME280;57728;50.448;18.824;2023-01-30T11:17:02;96910.97;;;-0.16;73.83
67397;BME280;57728;50.448;18.824;2023-01-30T11:19:04;96866.16;;;-0.51;73.78
67397;BME280;57728;50.448;18.824;2023-01-30T11:21:12;96849.69;;;-0.55;74.04
67397;BME280;57728;50.448;18.824;2023-01-30T11:23:39;96888.47;;;-0.44;74.07
67397;BME280;57728;50.448;18.824;2023-01-30T11:25:49;96811.78;;;-0.80;74.26
67397;BME280;57728;50.448;18.824;2023-01-30T11:27:59;96722.22;;;-1.34;74.36
67397;BME280;57728;50.448;18.824;2023-01-30T11:30:14;96907.59;;;-0.25;74.58
67397;BME280;57728;50.448;18.824;2023-01-30T11:32:27;96778.59;;;-1.07;74.50
67397;BME280;57728;50.448;18.824;2023-01-30T11:34:29;96827.97;;;-0.66;74.63
67397;BME280;57728;50.448;18.824;2023-01-30T11:36:34;96865.09;;;-0.35;74.96
67397;BME280;57728;50.448;18.824;2023-01-30T11:38:36;96870.78;;;-0.23;74.91
67397;BME280;57728;50.448;18.824;2023-01-30T11:40:40;96766.66;;;-0.90;74.84
67397;BME280;57728;50.448;18.824;2023-01-30T11:42:45;96767.81;;;-0.77;75.10
67397;BME280;57728;50.448;18.824;2023-01-30T11:44:56;96837.41;;;-0.27;74.97
67397;BME280;57728;50.448;18.824;2023-01-30T11:47:23;96805.59;;;-0.44;75.04
67397;BME280;57728;50.448;18.824;2023-01-30T11:49:32;96851.94;;;-0.15;75.31
67397;BME280;57728;50.448;18.824;2023-01-30T11:51:44;96782.91;;;-0.48;75.05
67397;BME280;57728;50.448;18.824;2023-01-30T11:53:57;96838.41;;;-0.07;75.33
67397;BME280;57728;50.448;18.824;2023-01-30T11:58:20;96821.47;;;-0.14;75.35
67397;BME280;57728;50.448;18.824;2023-01-30T12:00:26;96851.09;;;0.06;75.61
67397;BME280;57728;50.448;18.824;2023-01-30T12:02:39;96713.69;;;-0.86;75.36
67397;BME280;57728;50.448;18.824;2023-01-30T12:04:45;96826.88;;;-0.07;75.46
67397;BME280;57728;50.448;18.824;2023-01-30T12:07:17;96815.22;;;0.01;75.55
67397;BME280;57728;50.448;18.824;2023-01-30T12:09:41;96861.69;;;0.21;75.59
67397;BME280;57728;50.448;18.824;2023-01-30T12:11:43;96741.56;;;-0.45;75.65
67397;BME280;57728;50.448;18.824;2023-01-30T12:13:45;96842.78;;;0.23;75.73
67397;BME280;57728;50.448;18.824;2023-01-30T12:16:01;96827.81;;;0.07;75.68
67397;BME280;57728;50.448;18.824;2023-01-30T12:18:26;96841.72;;;0.17;75.93
67397;BME280;57728;50.448;18.824;2023-01-30T12:20:52;96809.94;;;0.14;76.08
67397;BME280;57728;50.448;18.824;2023-01-30T12:23:50;96842.81;;;0.29;76.17
67397;BME280;57728;50.448;18.824;2023-01-30T12:28:21;96770.75;;;-0.01;76.63
67397;BME280;57728;50.448;18.824;2023-01-30T12:30:41;96823.56;;;0.47;76.69